Time;durP1;ratioP1;P1;durP2;ratioP2;P2;SDS_P1;SDS_P2;PMS_P1;PMS_P2;Temp;Humidity;BMP_temperature;BMP_pressure;BME280_temperature;BME280_humidity;BME280_pressure;Samples;Min_cycle;Max_cycle;Signal;HPM_P1;HPM_P2
2021/11/28 00:01:17;;;;;;;14.55;11.80;;;;;;;4.66;74.42;97610.22;1709608;82;21500;-64
2021/11/28 00:03:45;;;;;;;17.35;12.70;;;;;;;4.68;74.47;97622.70;1700930;82;21539;-64
2021/11/28 00:06:31;;;;;;;18.25;13.68;;;;;;;4.74;74.46;97641.75;1700215;82;21143;-64
2021/11/28 00:11:35;;;;;;;15.25;12.18;;;;;;;4.90;74.32;97643.42;1598952;88;21033;-64
2021/11/28 00:14:11;;;;;;;16.75;13.43;;;;;;;4.93;74.20;97647.82;1697109;82;20882;-64
2021/11/28 00:16:36;;;;;;;18.52;13.80;;;;;;;4.95;74.04;97648.45;1711659;82;21006;-64
2021/11/28 00:19:04;;;;;;;14.25;12.75;;;;;;;4.95;73.92;97641.86;1704769;82;21978;-65
2021/11/28 00:21:31;;;;;;;16.25;12.85;;;;;;;4.96;73.84;97647.47;1717544;82;20982;-64
2021/11/28 00:23:58;;;;;;;14.33;12.82;;;;;;;4.97;73.84;97639.89;1706595;82;20903;-63
2021/11/28 00:26:25;;;;;;;16.93;12.58;;;;;;;5.03;73.63;97642.80;1705909;82;21106;-64
2021/11/28 00:28:53;;;;;;;14.87;12.65;;;;;;;5.02;73.65;97644.62;1714636;82;21009;-65
2021/11/28 00:31:19;;;;;;;13.93;12.53;;;;;;;4.99;73.84;97631.30;1705346;82;21234;-64
2021/11/28 00:33:49;;;;;;;16.32;13.10;;;;;;;4.96;74.12;97627.70;1705799;82;20999;-64
2021/11/28 00:36:18;;;;;;;16.90;14.30;;;;;;;4.91;74.33;97627.91;1701042;82;20906;-65
2021/11/28 00:38:45;;;;;;;15.78;13.38;;;;;;;4.88;74.57;97632.22;1705271;82;20899;-64
2021/11/28 00:41:11;;;;;;;13.32;11.90;;;;;;;4.89;74.67;97643.09;1706685;82;21030;-64
2021/11/28 00:43:38;;;;;;;13.28;11.35;;;;;;;4.95;74.78;97639.75;1669219;85;22679;-64
2021/11/28 00:46:05;;;;;;;12.45;11.15;;;;;;;4.97;74.90;97639.89;1668371;85;20955;-64
2021/11/28 00:48:32;;;;;;;13.30;11.93;;;;;;;5.04;75.04;97633.88;1703503;82;20934;-63
2021/11/28 00:53:39;;;;;;;12.20;10.90;;;;;;;5.15;75.30;97642.67;1665541;83;20943;-64
2021/11/28 00:56:05;;;;;;;12.40;11.20;;;;;;;5.20;75.14;97646.91;1699640;82;21135;-65
2021/11/28 00:58:34;;;;;;;12.82;10.65;;;;;;;5.19;75.23;97638.70;1692973;82;21510;-65
2021/11/28 01:01:01;;;;;;;11.48;10.30;;;;;;;5.24;75.30;97638.97;1699989;83;20973;-65
2021/11/28 01:03:27;;;;;;;13.20;10.45;;;;;;;5.30;75.26;97638.23;1707805;83;20910;-65
2021/11/28 01:05:56;;;;;;;13.35;10.35;;;;;;;5.37;75.20;97641.80;1707094;82;20982;-65
2021/11/28 01:08:23;;;;;;;12.58;11.08;;;;;;;5.43;75.04;97645.00;1708545;82;21127;-65
2021/11/28 01:10:50;;;;;;;11.73;10.63;;;;;;;5.48;74.80;97651.38;1708634;82;21006;-65
2021/11/28 01:13:18;;;;;;;11.68;10.45;;;;;;;5.49;74.75;97645.11;1696328;83;21464;-65
2021/11/28 01:15:45;;;;;;;11.83;10.25;;;;;;;5.52;74.61;97641.28;1701747;82;21524;-64
2021/11/28 01:18:13;;;;;;;14.20;11.57;;;;;;;5.55;74.52;97639.61;1697339;82;21097;-63
2021/11/28 01:20:40;;;;;;;16.73;11.75;;;;;;;5.54;74.22;97640.59;1695877;82;21226;-65
2021/11/28 01:23:06;;;;;;;15.70;12.33;;;;;;;5.49;74.20;97633.23;1708130;83;20989;-64
2021/11/28 01:25:32;;;;;;;13.38;11.18;;;;;;;5.44;74.13;97639.56;1702271;82;21548;-64
2021/11/28 01:28:01;;;;;;;12.50;11.20;;;;;;;5.47;74.20;97638.37;1702776;82;21009;-64
2021/11/28 01:30:30;;;;;;;13.13;11.35;;;;;;;5.47;74.17;97628.66;1701377;82;20850;-63
2021/11/28 01:32:57;;;;;;;13.32;11.30;;;;;;;5.43;74.09;97629.18;1683692;83;21248;-65
2021/11/28 01:35:24;;;;;;;11.90;10.70;;;;;;;5.42;74.13;97615.17;1681423;83;20986;-63
2021/11/28 01:37:51;;;;;;;11.90;10.20;;;;;;;5.42;74.20;97605.94;1681688;83;21564;-65
2021/11/28 01:40:20;;;;;;;11.50;10.30;;;;;;;5.48;74.16;97621.05;1654233;85;20935;-64
2021/11/28 01:43:04;;;;;;;11.33;10.18;;;;;;;5.49;74.14;97617.41;1648337;85;21110;-63
2021/11/28 01:45:32;;;;;;;11.00;9.90;;;;;;;5.49;74.07;97610.82;1680377;83;21208;-62
2021/11/28 01:48:02;;;;;;;11.60;10.50;;;;;;;5.42;74.18;97611.21;1678490;83;20935;-63
2021/11/28 01:50:30;;;;;;;13.15;10.65;;;;;;;5.38;74.31;97607.81;1677697;83;20907;-63
2021/11/28 01:53:01;;;;;;;10.80;9.70;;;;;;;5.31;74.50;97598.52;1684660;83;20907;-63
2021/11/28 01:55:30;;;;;;;12.63;9.85;;;;;;;5.35;74.53;97591.86;1681073;83;21002;-64
2021/11/28 01:57:58;;;;;;;11.25;10.10;;;;;;;5.41;74.45;97590.31;1689205;83;21101;-64
2021/11/28 02:00:31;;;;;;;12.07;10.00;;;;;;;5.46;74.38;97580.03;1691806;83;20934;-64
2021/11/28 02:02:59;;;;;;;11.48;10.15;;;;;;;5.43;74.33;97580.39;1677166;83;20950;-63
2021/11/28 02:05:28;;;;;;;11.03;9.93;;;;;;;5.31;74.51;97580.05;1675972;84;21054;-64
2021/11/28 02:07:55;;;;;;;10.98;9.90;;;;;;;5.29;74.62;97579.92;1681280;83;21005;-65
2021/11/28 02:10:22;;;;;;;11.38;10.28;;;;;;;5.25;74.84;97578.63;1673727;84;21145;-65
2021/11/28 02:12:52;;;;;;;10.88;9.88;;;;;;;5.27;75.00;97584.53;1686958;83;20986;-64
2021/11/28 02:15:19;;;;;;;11.55;10.45;;;;;;;5.37;74.95;97577.19;1686354;83;20919;-65
2021/11/28 02:17:52;;;;;;;12.28;10.48;;;;;;;5.46;74.76;97577.39;1676562;83;21076;-64
2021/11/28 02:20:21;;;;;;;11.38;10.20;;;;;;;5.51;74.49;97567.11;1690196;83;20967;-64
2021/11/28 02:22:49;;;;;;;12.10;10.50;;;;;;;5.42;74.51;97562.42;1680699;83;21086;-65
2021/11/28 02:25:15;;;;;;;11.15;10.05;;;;;;;5.46;74.53;97564.20;1679332;83;20911;-63
2021/11/28 02:27:42;;;;;;;13.05;9.90;;;;;;;5.51;74.63;97569.74;1691014;83;20963;-63
2021/11/28 02:30:10;;;;;;;12.68;11.20;;;;;;;5.59;74.65;97567.83;1677955;83;20927;-64
2021/11/28 02:32:37;;;;;;;11.97;10.68;;;;;;;5.69;74.42;97562.25;1694238;82;21013;-64
2021/11/28 02:35:07;;;;;;;12.47;11.15;;;;;;;5.73;74.19;97554.30;1694167;82;21343;-63
2021/11/28 02:37:33;;;;;;;12.58;11.03;;;;;;;5.69;74.01;97548.23;1667910;85;21595;-63
2021/11/28 02:40:03;;;;;;;12.88;11.55;;;;;;;5.62;74.09;97553.45;1643202;86;21065;-63
2021/11/28 02:42:30;;;;;;;11.22;10.03;;;;;;;5.54;74.20;97549.59;1661385;85;21433;-64
2021/11/28 02:44:57;;;;;;;12.00;10.75;;;;;;;5.45;74.46;97540.14;1698520;82;20942;-65
2021/11/28 02:47:24;;;;;;;11.20;9.98;;;;;;;5.29;75.01;97539.84;1702081;82;21162;-64
2021/11/28 02:49:50;;;;;;;11.97;10.65;;;;;;;5.20;75.40;97546.23;1712757;82;21517;-62
2021/11/28 02:52:18;;;;;;;11.48;10.30;;;;;;;5.09;75.84;97541.91;1696173;83;20910;-64
2021/11/28 02:54:44;;;;;;;10.28;9.33;;;;;;;4.98;76.32;97545.33;1703841;82;21080;-63
2021/11/28 02:57:11;;;;;;;11.12;9.70;;;;;;;4.94;76.63;97552.46;1709312;82;20924;-62
2021/11/28 02:59:39;;;;;;;10.85;9.78;;;;;;;4.91;76.66;97554.96;1706390;82;21145;-63
2021/11/28 03:02:06;;;;;;;10.43;9.35;;;;;;;4.96;76.64;97556.55;1698504;82;21041;-63
2021/11/28 03:04:53;;;;;;;11.05;9.85;;;;;;;4.99;76.53;97560.15;1698165;82;21007;-64
2021/11/28 03:07:20;;;;;;;10.53;9.35;;;;;;;4.96;76.57;97562.31;1702031;82;21516;-64
2021/11/28 03:09:47;;;;;;;10.90;9.80;;;;;;;4.99;76.48;97558.83;1706591;82;21033;-65
2021/11/28 03:12:14;;;;;;;10.63;9.53;;;;;;;4.99;76.46;97562.78;1700152;83;21204;-64
2021/11/28 03:14:41;;;;;;;10.98;9.85;;;;;;;5.03;76.56;97562.42;1693786;82;20945;-64
2021/11/28 03:17:08;;;;;;;10.82;9.73;;;;;;;5.03;76.56;97554.02;1692080;82;20978;-63
2021/11/28 03:19:35;;;;;;;11.30;10.20;;;;;;;5.10;76.52;97560.69;1705737;82;20910;-65
2021/11/28 03:22:03;;;;;;;11.93;10.48;;;;;;;5.14;76.46;97556.18;1696871;82;20973;-63
2021/11/28 03:24:30;;;;;;;10.88;9.80;;;;;;;5.21;76.35;97563.70;1704228;82;21180;-65
2021/11/28 03:26:58;;;;;;;11.22;9.35;;;;;;;5.25;76.21;97570.23;1696831;82;20941;-64
2021/11/28 03:29:26;;;;;;;12.43;10.30;;;;;;;5.27;76.18;97566.08;1703416;82;20974;-64
2021/11/28 03:32:08;;;;;;;11.78;10.55;;;;;;;5.34;76.08;97570.47;1657036;85;20930;-63
2021/11/28 03:34:37;;;;;;;10.98;9.88;;;;;;;5.40;76.02;97566.25;1666552;85;20985;-64
2021/11/28 03:37:05;;;;;;;12.15;9.50;;;;;;;5.45;75.97;97562.56;1704638;82;21156;-65
2021/11/28 03:39:32;;;;;;;13.22;10.63;;;;;;;5.51;75.83;97561.83;1708770;82;20847;-65
2021/11/28 03:42:05;;;;;;;11.20;9.45;;;;;;;5.51;75.77;97555.23;1706682;82;20878;-63
2021/11/28 03:44:33;;;;;;;12.73;10.40;;;;;;;5.45;75.68;97548.05;1711770;82;21044;-64
2021/11/28 03:47:03;;;;;;;11.97;10.40;;;;;;;5.41;75.82;97553.39;1683745;82;21021;-65
2021/11/28 03:49:30;;;;;;;12.23;11.00;;;;;;;5.38;75.93;97549.31;1701998;83;21169;-65
2021/11/28 03:51:58;;;;;;;10.95;9.85;;;;;;;5.39;76.03;97547.49;1701725;82;20891;-64
2021/11/28 03:54:25;;;;;;;10.90;9.80;;;;;;;5.40;76.16;97558.34;1694530;82;20970;-65
2021/11/28 03:56:54;;;;;;;11.68;10.48;;;;;;;5.47;76.18;97552.66;1695737;82;20958;-65
2021/11/28 03:59:23;;;;;;;11.53;9.68;;;;;;;5.58;76.17;97550.36;1704368;82;21088;-64
2021/11/28 04:01:50;;;;;;;11.53;10.32;;;;;;;5.69;75.99;97549.06;1699412;83;21145;-63
2021/11/28 04:04:17;;;;;;;12.25;10.93;;;;;;;5.79;75.85;97549.57;1693115;83;20986;-65
2021/11/28 04:07:03;;;;;;;11.38;10.08;;;;;;;5.89;75.45;97546.16;1702451;82;21402;-65
2021/11/28 04:09:31;;;;;;;13.45;12.05;;;;;;;5.92;75.15;97551.56;1702964;82;20914;-65
2021/11/28 04:11:59;;;;;;;12.35;10.25;;;;;;;5.97;74.95;97550.52;1696018;83;20894;-64
2021/11/28 04:14:27;;;;;;;11.80;10.63;;;;;;;5.95;74.86;97545.41;1696285;83;21149;-64
2021/11/28 04:16:53;;;;;;;12.15;10.70;;;;;;;5.96;74.82;97551.02;1705974;82;21599;-65
2021/11/28 04:19:21;;;;;;;11.65;10.45;;;;;;;6.01;74.76;97561.83;1701613;83;21501;-64
2021/11/28 04:21:48;;;;;;;11.38;10.18;;;;;;;6.04;74.71;97554.86;1669495;85;21090;-65
2021/11/28 04:24:15;;;;;;;11.60;10.35;;;;;;;6.07;74.63;97554.98;1663327;85;20978;-64
2021/11/28 04:26:42;;;;;;;13.20;11.18;;;;;;;6.08;74.41;97557.42;1658141;84;21174;-65
2021/11/28 04:29:11;;;;;;;12.75;11.08;;;;;;;6.07;74.29;97562.91;1701767;83;21513;-65
2021/11/28 04:31:38;;;;;;;11.48;10.43;;;;;;;6.08;74.33;97558.75;1699335;82;21062;-66
2021/11/28 04:34:05;;;;;;;11.55;10.35;;;;;;;6.03;74.38;97561.63;1700094;82;21121;-64
2021/11/28 04:36:33;;;;;;;13.32;11.65;;;;;;;5.97;74.58;97556.59;1702730;83;20941;-66
2021/11/28 04:39:00;;;;;;;12.25;10.95;;;;;;;5.98;74.60;97560.88;1699842;83;21506;-63
2021/11/28 04:41:27;;;;;;;11.65;10.28;;;;;;;6.02;74.58;97554.21;1702010;83;20943;-64
2021/11/28 04:43:56;;;;;;;12.78;11.15;;;;;;;6.03;74.53;97549.75;1685596;83;20915;-63
2021/11/28 04:46:22;;;;;;;12.20;10.90;;;;;;;6.03;74.56;97553.71;1708502;82;21452;-62
2021/11/28 04:48:50;;;;;;;15.03;11.90;;;;;;;6.01;74.56;97553.91;1699526;83;21017;-62
2021/11/28 04:51:28;;;;;;;11.93;10.70;;;;;;;5.98;74.66;97546.36;1700195;83;21190;-64
2021/11/28 04:53:57;;;;;;;11.53;10.32;;;;;;;5.94;74.86;97535.88;1692530;83;20914;-64
2021/11/28 04:56:26;;;;;;;11.35;10.10;;;;;;;5.99;74.92;97532.67;1697674;82;21002;-62
2021/11/28 04:58:55;;;;;;;12.30;11.10;;;;;;;6.01;74.97;97538.08;1697063;83;21073;-62
2021/11/28 05:01:24;;;;;;;11.95;10.75;;;;;;;6.06;74.96;97531.73;1699536;83;21016;-63
2021/11/28 05:03:53;;;;;;;13.05;11.55;;;;;;;6.11;74.90;97535.94;1703120;83;21789;-62
2021/11/28 05:06:27;;;;;;;12.40;11.20;;;;;;;6.17;74.88;97533.88;1703306;83;21622;-65
2021/11/28 05:09:13;;;;;;;15.10;11.43;;;;;;;6.22;74.81;97531.97;1697099;83;20953;-64
2021/11/28 05:11:40;;;;;;;13.05;11.08;;;;;;;6.28;74.76;97544.43;1694543;83;20997;-62
2021/11/28 05:14:09;;;;;;;12.63;10.60;;;;;;;6.35;74.74;97545.80;1698630;83;21064;-64
2021/11/28 05:16:41;;;;;;;13.28;11.75;;;;;;;6.42;74.56;97547.97;1702657;83;21125;-62
2021/11/28 05:19:09;;;;;;;12.15;10.95;;;;;;;6.45;74.42;97539.67;1694773;82;21089;-64
2021/11/28 05:21:53;;;;;;;13.88;11.70;;;;;;;6.50;74.38;97541.23;1626373;87;21122;-64
2021/11/28 05:24:21;;;;;;;12.68;10.45;;;;;;;6.58;74.31;97542.42;1666050;83;20986;-65
2021/11/28 05:26:51;;;;;;;12.90;11.50;;;;;;;6.56;74.05;97537.84;1697261;83;21048;-64
2021/11/28 05:29:18;;;;;;;11.95;10.75;;;;;;;6.57;74.10;97535.52;1709733;82;21955;-64
2021/11/28 05:31:47;;;;;;;12.63;11.15;;;;;;;6.59;74.06;97531.68;1697451;82;20999;-65
2021/11/28 05:34:16;;;;;;;14.30;11.00;;;;;;;6.64;73.94;97533.24;1690478;83;21488;-65
2021/11/28 05:37:00;;;;;;;13.03;11.55;;;;;;;6.67;74.00;97533.36;1712218;82;21906;-62
2021/11/28 05:39:29;;;;;;;13.28;11.48;;;;;;;6.64;73.78;97529.77;1712513;82;21012;-63
2021/11/28 05:41:57;;;;;;;13.43;10.93;;;;;;;6.54;73.96;97529.30;1711750;82;21717;-64
2021/11/28 05:44:26;;;;;;;17.92;12.45;;;;;;;6.45;74.09;97522.01;1685355;84;20993;-65
2021/11/28 05:46:55;;;;;;;12.78;11.45;;;;;;;6.32;74.26;97513.98;1707736;82;20925;-64
2021/11/28 05:49:26;;;;;;;12.43;10.72;;;;;;;6.31;74.47;97514.18;1706736;82;20980;-64
2021/11/28 05:52:08;;;;;;;13.10;11.35;;;;;;;6.35;74.53;97511.45;1703370;82;20962;-64
2021/11/28 05:54:35;;;;;;;12.63;11.15;;;;;;;6.39;74.59;97516.16;1658407;84;21127;-64
2021/11/28 05:57:04;;;;;;;11.70;10.48;;;;;;;6.47;74.52;97525.27;1677291;84;20957;-64
2021/11/28 05:59:32;;;;;;;13.53;12.05;;;;;;;6.54;74.37;97549.11;1678365;84;21030;-64
2021/11/28 06:01:59;;;;;;;14.87;12.82;;;;;;;6.52;74.15;97547.14;1681281;84;20957;-63
2021/11/28 06:04:26;;;;;;;14.43;12.93;;;;;;;6.44;74.11;97553.38;1682611;84;20965;-64
2021/11/28 06:07:11;;;;;;;14.35;12.88;;;;;;;6.30;74.32;97557.42;1674525;84;21254;-65
2021/11/28 06:09:40;;;;;;;15.95;12.85;;;;;;;6.28;74.60;97554.16;1676516;83;21500;-65
2021/11/28 06:12:08;;;;;;;15.85;13.30;;;;;;;6.27;74.62;97559.95;1682298;84;21564;-64
2021/11/28 06:14:36;;;;;;;18.55;12.50;;;;;;;6.24;74.66;97551.08;1682316;84;20957;-64
2021/11/28 06:17:04;;;;;;;15.63;13.93;;;;;;;6.13;75.00;97553.72;1674235;84;21056;-64
2021/11/28 06:19:47;;;;;;;13.50;12.10;;;;;;;6.14;75.20;97544.80;1676202;84;21191;-64
2021/11/28 06:22:21;;;;;;;14.85;12.35;;;;;;;6.12;75.34;97540.22;1680395;84;21007;-64
2021/11/28 06:24:49;;;;;;;15.13;13.53;;;;;;;6.11;75.44;97527.19;1680761;84;21001;-63
2021/11/28 06:27:19;;;;;;;16.17;12.70;;;;;;;6.13;75.45;97515.94;1674019;84;21001;-63
2021/11/28 06:29:47;;;;;;;12.50;11.20;;;;;;;6.09;75.44;97514.69;1678575;84;21092;-65
2021/11/28 06:32:15;;;;;;;15.45;12.78;;;;;;;6.14;75.38;97511.80;1679057;84;21143;-64
2021/11/28 06:35:00;;;;;;;15.40;13.32;;;;;;;6.17;75.38;97524.63;1684157;84;20867;-64
2021/11/28 06:37:35;;;;;;;15.32;13.30;;;;;;;6.16;75.33;97536.19;1649134;84;21555;-64
2021/11/28 06:40:05;;;;;;;13.38;11.97;;;;;;;6.23;75.39;97532.80;1686708;84;21077;-63
2021/11/28 06:42:34;;;;;;;16.10;12.60;;;;;;;6.19;75.32;97542.91;1670915;85;21025;-64
2021/11/28 06:45:01;;;;;;;14.87;13.28;;;;;;;6.16;75.41;97536.68;1677614;84;21196;-64
2021/11/28 06:47:27;;;;;;;16.73;13.62;;;;;;;6.14;75.68;97527.64;1681470;84;21480;-64
2021/11/28 06:49:54;;;;;;;14.85;13.15;;;;;;;6.13;75.82;97523.85;1675877;84;20997;-66
2021/11/28 06:52:39;;;;;;;16.85;13.75;;;;;;;6.15;75.99;97527.94;1672189;85;21448;-67
2021/11/28 06:55:25;;;;;;;17.07;14.73;;;;;;;6.19;76.05;97512.55;1681380;84;21045;-67
2021/11/28 06:58:05;;;;;;;15.78;13.55;;;;;;;6.15;76.25;97506.81;1629964;84;21181;-67
2021/11/28 07:00:34;;;;;;;15.88;14.18;;;;;;;6.23;76.38;97509.03;1680984;84;21092;-66
2021/11/28 07:03:01;;;;;;;15.28;13.32;;;;;;;6.27;76.55;97516.37;1662698;85;20955;-69
2021/11/28 07:05:46;;;;;;;23.50;18.27;;;;;;;6.32;76.57;97510.02;1662254;85;21006;-67
2021/11/28 07:08:12;;;;;;;14.55;12.90;;;;;;;6.42;76.57;97520.24;1648299;86;21085;-70
2021/11/28 07:10:41;;;;;;;15.80;13.00;;;;;;;6.51;76.43;97516.47;1641105;86;21647;-69
2021/11/28 07:13:13;;;;;;;15.88;13.20;;;;;;;6.57;76.21;97524.95;1648669;86;21018;-69
2021/11/28 07:15:41;;;;;;;16.82;13.45;;;;;;;6.56;76.27;97529.91;1649846;86;21627;-63
2021/11/28 07:18:11;;;;;;;18.15;14.98;;;;;;;6.54;76.38;97534.08;1679144;84;21024;-70
2021/11/28 07:20:45;;;;;;;18.37;14.28;;;;;;;6.53;76.49;97523.19;1622043;84;21022;-66
2021/11/28 07:23:12;;;;;;;16.17;14.23;;;;;;;6.54;76.53;97524.02;1687385;84;21562;-68
2021/11/28 07:25:40;;;;;;;16.60;14.03;;;;;;;6.57;76.67;97520.47;1683915;84;20942;-67
2021/11/28 07:28:08;;;;;;;14.98;13.43;;;;;;;6.63;76.58;97516.23;1681894;84;20994;-73
2021/11/28 07:30:37;;;;;;;15.08;13.45;;;;;;;6.62;76.48;97510.66;1686463;84;21021;-72
2021/11/28 07:33:05;;;;;;;14.30;12.80;;;;;;;6.58;76.69;97514.19;1681760;84;21041;-71
2021/11/28 07:35:46;;;;;;;14.45;12.93;;;;;;;6.56;76.79;97520.67;1659093;84;21257;-71
2021/11/28 07:38:18;;;;;;;14.60;12.75;;;;;;;6.59;76.79;97521.11;1682755;84;20965;-69
2021/11/28 07:40:44;;;;;;;14.98;13.38;;;;;;;6.68;76.70;97529.69;1683914;84;21499;-67
2021/11/28 07:43:16;;;;;;;15.78;13.48;;;;;;;6.78;76.51;97538.09;1672231;84;20977;-64
2021/11/28 07:45:44;;;;;;;14.93;13.00;;;;;;;6.87;76.27;97539.59;1616831;85;20970;-72
2021/11/28 07:48:15;;;;;;;15.48;13.78;;;;;;;6.87;76.26;97533.48;1645643;85;22187;-71
2021/11/28 07:51:00;;;;;;;14.03;12.65;;;;;;;6.89;76.23;97542.03;1671165;85;20984;-71
2021/11/28 07:53:29;;;;;;;18.32;14.18;;;;;;;6.89;76.19;97552.10;1676448;84;20962;-68
2021/11/28 07:55:56;;;;;;;15.13;12.95;;;;;;;6.86;76.15;97549.05;1673814;84;21599;-72
2021/11/28 07:58:40;;;;;;;15.50;13.40;;;;;;;6.82;76.21;97542.00;1645513;86;21040;-67
2021/11/28 08:01:11;;;;;;;17.25;14.00;;;;;;;6.75;76.47;97539.83;1659591;85;21989;-66
2021/11/28 08:03:39;;;;;;;16.93;13.65;;;;;;;6.71;76.60;97538.06;1672997;84;20938;-73
2021/11/28 08:06:24;;;;;;;14.50;13.00;;;;;;;6.69;76.53;97539.27;1650562;85;21535;-73
2021/11/28 08:08:53;;;;;;;16.73;13.70;;;;;;;6.72;76.66;97536.23;1606963;86;20926;-69
2021/11/28 08:11:33;;;;;;;16.40;13.75;;;;;;;6.68;76.86;97542.91;1685405;84;20999;-68
2021/11/28 08:14:00;;;;;;;15.03;13.32;;;;;;;6.69;77.01;97533.98;1684877;84;21914;-73
2021/11/28 08:16:27;;;;;;;15.63;12.80;;;;;;;6.69;77.21;97533.98;1686643;84;21046;-70
2021/11/28 08:18:54;;;;;;;19.05;15.70;;;;;;;6.69;76.92;97532.16;1686933;84;20987;-70
2021/11/28 08:21:26;;;;;;;15.18;12.85;;;;;;;6.69;77.04;97537.94;1660175;85;21013;-73
2021/11/28 08:23:50;;;;;;;15.28;12.98;;;;;;;6.64;77.18;97537.20;1674427;84;21509;-72
2021/11/28 08:26:16;;;;;;;14.38;12.80;;;;;;;6.58;77.21;97533.17;1655433;86;21172;-72
2021/11/28 08:28:44;;;;;;;15.20;13.50;;;;;;;6.56;77.23;97529.42;1652646;86;21574;-66
2021/11/28 08:31:12;;;;;;;15.88;14.28;;;;;;;6.54;77.46;97527.98;1647480;86;20962;-72
2021/11/28 08:33:50;;;;;;;18.45;13.70;;;;;;;6.50;77.74;97520.11;1571334;90;21094;-68
2021/11/28 08:36:22;;;;;;;16.73;14.95;;;;;;;6.45;77.79;97520.69;1674501;82;21029;-71
2021/11/28 08:38:49;;;;;;;16.25;14.65;;;;;;;6.42;77.84;97512.31;1718578;82;21160;-69
2021/11/28 08:41:16;;;;;;;19.25;15.23;;;;;;;6.33;78.31;97501.59;1720497;82;20945;-68
2021/11/28 08:43:43;;;;;;;21.85;16.80;;;;;;;6.30;78.98;97515.17;1723842;81;21074;-65
2021/11/28 08:46:10;;;;;;;23.35;18.30;;;;;;;6.30;79.32;97508.58;1721475;82;20910;-67
2021/11/28 08:48:37;;;;;;;19.73;17.62;;;;;;;6.35;79.22;97507.50;1717082;82;20941;-66
2021/11/28 08:51:05;;;;;;;19.27;17.20;;;;;;;6.33;78.93;97502.91;1719970;82;21612;-70
2021/11/28 08:53:34;;;;;;;20.88;18.23;;;;;;;6.29;79.18;97502.97;1726023;82;20937;-68
2021/11/28 08:56:01;;;;;;;18.62;16.70;;;;;;;6.29;79.07;97498.51;1720475;82;20941;-66
2021/11/28 08:58:27;;;;;;;21.10;17.90;;;;;;;6.31;79.31;97495.70;1718994;82;20950;-66
2021/11/28 09:00:54;;;;;;;21.12;17.00;;;;;;;6.30;79.22;97494.88;1716723;82;21092;-66
2021/11/28 09:03:21;;;;;;;20.95;16.17;;;;;;;6.34;79.20;97489.51;1716347;82;21838;-70
2021/11/28 09:05:48;;;;;;;20.62;16.52;;;;;;;6.34;79.33;97486.87;1717146;82;20955;-65
2021/11/28 09:08:15;;;;;;;18.60;16.50;;;;;;;6.36;79.37;97484.84;1720736;82;21652;-68
2021/11/28 09:10:42;;;;;;;19.07;16.17;;;;;;;6.36;79.57;97484.05;1723421;82;20949;-65
2021/11/28 09:13:08;;;;;;;19.87;16.20;;;;;;;6.37;79.56;97483.02;1720718;82;20901;-67
2021/11/28 09:15:37;;;;;;;19.77;16.23;;;;;;;6.39;79.85;97481.03;1724494;82;21119;-75
2021/11/28 09:18:13;;;;;;;20.40;16.10;;;;;;;6.38;79.96;97474.92;1717584;82;21539;-70
2021/11/28 09:20:38;;;;;;;22.13;17.77;;;;;;;6.39;80.35;97473.90;1716076;82;21022;-68
2021/11/28 09:25:30;;;;;;;18.42;16.42;;;;;;;6.37;81.20;97464.54;1720265;82;20965;-71
2021/11/28 09:28:00;;;;;;;20.57;18.23;;;;;;;6.34;81.51;97455.67;1722260;82;21175;-69
2021/11/28 09:30:28;;;;;;;19.75;15.83;;;;;;;6.38;81.56;97452.48;1710616;82;20961;-72
2021/11/28 09:32:56;;;;;;;17.82;15.83;;;;;;;6.43;81.87;97451.89;1723179;82;21006;-69
2021/11/28 09:35:24;;;;;;;17.92;15.98;;;;;;;6.47;82.06;97445.20;1705199;82;21568;-71
2021/11/28 09:37:52;;;;;;;17.73;15.83;;;;;;;6.48;81.75;97445.02;1709799;83;21011;-67
2021/11/28 09:40:20;;;;;;;18.50;15.72;;;;;;;6.45;81.81;97449.37;1708212;82;20970;-72
2021/11/28 09:42:55;;;;;;;19.23;16.50;;;;;;;6.45;82.39;97445.41;1709109;83;21039;-69
2021/11/28 09:45:23;;;;;;;19.30;15.95;;;;;;;6.50;82.16;97437.72;1710605;82;20942;-71
2021/11/28 09:47:50;;;;;;;19.42;16.23;;;;;;;6.54;81.90;97441.62;1710283;83;21013;-69
2021/11/28 09:50:16;;;;;;;17.45;15.63;;;;;;;6.59;81.73;97436.56;1674664;84;21009;-68
2021/11/28 09:52:44;;;;;;;19.67;16.32;;;;;;;6.63;81.56;97429.88;1664055;84;21972;-72
2021/11/28 09:55:12;;;;;;;17.10;15.23;;;;;;;6.67;81.57;97427.66;1663263;85;21437;-71
2021/11/28 09:57:40;;;;;;;18.20;15.48;;;;;;;6.73;81.34;97432.97;1661893;84;21532;-71
2021/11/28 10:00:11;;;;;;;19.25;15.45;;;;;;;6.76;81.38;97437.05;1662190;84;20998;-69
2021/11/28 10:02:40;;;;;;;17.40;15.10;;;;;;;6.82;81.39;97434.45;1673541;84;21526;-69
2021/11/28 10:05:13;;;;;;;18.05;15.10;;;;;;;6.94;81.29;97439.16;1667505;84;21159;-66
2021/11/28 10:07:47;;;;;;;17.55;14.73;;;;;;;7.01;81.00;97438.21;1662965;85;20994;-67
2021/11/28 10:10:17;;;;;;;18.50;15.00;;;;;;;7.07;80.86;97428.65;1673145;85;21031;-66
2021/11/28 10:12:46;;;;;;;18.90;14.93;;;;;;;7.14;80.81;97426.87;1661393;84;21054;-67
2021/11/28 10:15:17;;;;;;;17.30;14.60;;;;;;;7.18;80.90;97426.27;1664008;85;21065;-73
2021/11/28 10:17:46;;;;;;;17.98;16.12;;;;;;;7.25;80.85;97429.73;1662781;84;20998;-65
2021/11/28 10:20:19;;;;;;;18.37;15.55;;;;;;;7.27;80.98;97428.23;1673379;85;20916;-68
2021/11/28 10:22:47;;;;;;;18.55;15.93;;;;;;;7.37;80.98;97420.23;1648543;85;21014;-67
2021/11/28 10:25:28;;;;;;;18.25;14.80;;;;;;;7.45;80.66;97421.88;1648429;85;21053;-67
2021/11/28 10:28:05;;;;;;;15.80;14.18;;;;;;;7.51;80.17;97411.01;1646186;86;21168;-70
2021/11/28 10:30:38;;;;;;;19.42;15.72;;;;;;;7.48;80.04;97408.25;1645537;86;21158;-70
2021/11/28 10:33:12;;;;;;;16.37;14.68;;;;;;;7.48;79.91;97404.78;1640405;86;21074;-68
2021/11/28 10:36:02;;;;;;;17.12;15.30;;;;;;;7.51;79.86;97403.06;1656239;85;20903;-67
2021/11/28 10:38:41;;;;;;;17.05;14.65;;;;;;;7.52;79.90;97398.06;1702217;82;21018;-71
2021/11/28 10:41:27;;;;;;;17.42;15.40;;;;;;;7.55;79.97;97397.67;1709271;82;21057;-70
2021/11/28 10:43:55;;;;;;;17.07;15.28;;;;;;;7.55;80.02;97395.02;1706485;82;21157;-63
2021/11/28 10:46:32;;;;;;;16.95;14.65;;;;;;;7.67;79.83;97390.75;1699498;82;20883;-63
2021/11/28 10:49:11;;;;;;;15.08;13.48;;;;;;;7.75;79.68;97390.56;1707885;82;21045;-68
2021/11/28 10:51:41;;;;;;;15.65;13.83;;;;;;;7.82;79.57;97388.75;1707189;82;20993;-67
2021/11/28 10:54:36;;;;;;;15.72;12.80;;;;;;;7.88;79.62;97386.59;1716132;82;20981;-67
2021/11/28 10:57:13;;;;;;;15.05;13.53;;;;;;;7.90;79.78;97380.61;1699185;82;21165;-72
2021/11/28 10:59:47;;;;;;;16.57;13.95;;;;;;;7.89;79.81;97367.88;1699149;82;21432;-65
2021/11/28 11:02:34;;;;;;;15.83;13.30;;;;;;;7.86;79.27;97367.46;1710918;82;21001;-66
2021/11/28 11:05:04;;;;;;;15.55;13.88;;;;;;;7.88;79.10;97365.42;1707686;82;21008;-66
2021/11/28 11:07:43;;;;;;;14.45;12.93;;;;;;;7.90;79.10;97354.92;1710104;82;21427;-65
2021/11/28 11:10:26;;;;;;;14.33;12.70;;;;;;;7.86;78.89;97362.17;1712356;82;20898;-71
2021/11/28 11:12:54;;;;;;;15.83;14.23;;;;;;;7.86;79.03;97360.84;1715259;82;20989;-68
2021/11/28 11:15:46;;;;;;;15.23;13.62;;;;;;;7.86;79.01;97359.52;1707850;82;20980;-70
2021/11/28 11:18:21;;;;;;;15.20;13.60;;;;;;;7.82;79.16;97356.98;1715562;82;21032;-73
2021/11/28 11:20:55;;;;;;;16.73;14.18;;;;;;;7.89;79.47;97353.82;1709654;82;21114;-71
2021/11/28 11:23:41;;;;;;;16.00;14.33;;;;;;;7.96;79.18;97348.00;1690603;82;21697;-68
2021/11/28 11:26:19;;;;;;;15.95;14.20;;;;;;;7.99;78.92;97348.92;1715370;82;28776;-72
2021/11/28 11:29:11;;;;;;;15.03;12.82;;;;;;;8.00;79.10;97354.00;1708507;83;22078;-72
2021/11/28 11:31:41;;;;;;;15.32;13.83;;;;;;;8.02;79.15;97345.37;1711119;82;20979;-68
2021/11/28 11:34:28;;;;;;;17.85;14.30;;;;;;;8.01;79.20;97347.70;1718483;83;21073;-64
2021/11/28 11:37:13;;;;;;;16.97;15.32;;;;;;;8.00;79.27;97347.91;1709179;83;21754;-68
2021/11/28 11:39:47;;;;;;;15.58;13.72;;;;;;;8.02;79.33;97351.16;1707598;83;20950;-73
2021/11/28 11:42:17;;;;;;;15.90;14.30;;;;;;;8.07;79.53;97346.89;1702316;83;21105;-75
2021/11/28 11:44:45;;;;;;;15.18;13.08;;;;;;;8.15;79.70;97343.71;1714367;82;21139;-80
2021/11/28 11:47:11;;;;;;;15.18;13.60;;;;;;;8.20;79.69;97343.91;1709598;83;21477;-69
2021/11/28 11:49:39;;;;;;;14.38;12.45;;;;;;;8.19;79.38;97341.76;1712388;83;21194;-74